X  Fermer Données météorologiques d'aviation de Metar     KRYV Watertown Municipal Airport
Température
52°F Température
32°F Point de rosée
47% Humidité



Vitesse
5 MPH
8 KM/H
2 M/S
4 KTS



270°
Ouest
Conditions actuelles

Claire Claire
Pression 1016.62 (hPa) - 30.02 (inHg)
Visibilité 9.9 (mile) - 16 (km)
Aéroport
Code de l'aéroport KRYV

Emplacement: Watertown Municipal Airport
Distance: 8 (mi)

Metar:
KRYV 162355Z AUTO 27004KT 10SM CLR 11/01 A3002 RMK AO2 T01060005 10151 20106

Temps: 16-10-2021 18:55 CDT